Time;durP1;ratioP1;P1;durP2;ratioP2;P2;SDS_P1;SDS_P2;PMS_P1;PMS_P2;Temp;Humidity;BMP_temperature;BMP_pressure;BME280_temperature;BME280_humidity;BME280_pressure;Samples;Min_cycle;Max_cycle;Signal;HPM_P1;HPM_P2
2021/12/14 00:00:49;;;;;;;3.30;3.00;;;8.60;99.90;;;;;;5022368;28;20075;-77
2021/12/14 00:03:17;;;;;;;3.50;3.08;;;8.60;99.90;;;;;;5004663;28;20492;-77
2021/12/14 00:05:44;;;;;;;4.05;3.35;;;8.50;99.90;;;;;;5022239;28;20058;-77
2021/12/14 00:08:13;;;;;;;4.63;4.25;;;8.60;99.90;;;;;;5004357;28;20045;-77
2021/12/14 00:16:11;;;;;;;3.05;2.85;;;8.50;99.90;;;;;;5004653;28;20103;-77
2021/12/14 00:18:38;;;;;;;4.53;2.47;;;8.50;99.90;;;;;;5022264;28;20857;-77
2021/12/14 00:21:09;;;;;;;2.15;2.00;;;8.50;99.90;;;;;;5022367;28;20049;-77
2021/12/14 00:26:21;;;;;;;4.55;4.07;;;8.50;99.90;;;;;;5004714;28;20076;-77
2021/12/14 00:28:49;;;;;;;5.03;2.95;;;8.50;99.90;;;;;;4999027;28;20049;-77
2021/12/14 00:31:17;;;;;;;4.72;4.32;;;8.50;99.90;;;;;;5001888;28;20049;-77
2021/12/14 00:33:47;;;;;;;4.53;4.13;;;8.50;99.90;;;;;;5002125;28;20057;-77
2021/12/14 00:36:13;;;;;;;3.47;3.17;;;8.50;99.90;;;;;;5002017;28;20086;-77
2021/12/14 00:38:41;;;;;;;3.17;2.97;;;8.50;99.90;;;;;;4984736;28;20045;-77
2021/12/14 00:41:13;;;;;;;3.60;3.30;;;8.50;99.90;;;;;;4984250;28;20124;-77
2021/12/14 00:43:40;;;;;;;4.93;3.47;;;8.50;99.90;;;;;;4983798;28;20125;-77
2021/12/14 00:46:06;;;;;;;3.88;3.58;;;8.40;99.90;;;;;;4984169;28;20060;-77
2021/12/14 00:48:32;;;;;;;4.53;4.13;;;8.40;99.90;;;;;;4984766;28;20054;-77
2021/12/14 00:51:00;;;;;;;3.50;3.20;;;8.40;99.90;;;;;;4983901;28;20100;-77
2021/12/14 00:53:27;;;;;;;5.93;4.00;;;8.40;99.90;;;;;;4984304;28;20060;-77
2021/12/14 00:55:56;;;;;;;4.95;2.28;;;8.40;99.90;;;;;;5001556;28;20057;-78
2021/12/14 00:58:23;;;;;;;8.63;4.13;;;8.40;99.90;;;;;;5001036;28;20042;-77
2021/12/14 01:01:06;;;;;;;8.43;4.50;;;8.40;99.90;;;;;;5002534;28;20061;-77
2021/12/14 01:03:34;;;;;;;2.55;2.35;;;8.40;99.90;;;;;;5002168;28;20496;-77
2021/12/14 01:06:03;;;;;;;7.43;4.80;;;8.40;99.90;;;;;;4980757;28;20137;-78
2021/12/14 01:08:34;;;;;;;5.25;3.55;;;8.40;99.90;;;;;;4980814;28;20054;-77
2021/12/14 01:11:24;;;;;;;5.20;3.35;;;8.40;99.90;;;;;;4982364;28;20097;-77
2021/12/14 01:14:02;;;;;;;4.75;4.25;;;8.40;99.90;;;;;;4980916;28;20050;-77
2021/12/14 01:16:48;;;;;;;7.22;4.65;;;8.40;99.90;;;;;;4980611;28;20051;-77
2021/12/14 01:19:20;;;;;;;8.57;4.43;;;8.40;99.90;;;;;;4982002;28;20080;-77
2021/12/14 01:24:52;;;;;;;5.72;4.32;;;8.40;99.90;;;;;;4980891;28;20054;-75
2021/12/14 01:27:25;;;;;;;4.90;4.40;;;8.40;99.90;;;;;;4981489;28;20073;-75
2021/12/14 01:29:54;;;;;;;4.65;4.30;;;8.40;99.90;;;;;;4994927;28;20061;-75
2021/12/14 01:32:22;;;;;;;2.85;2.65;;;8.40;99.90;;;;;;5002021;28;20060;-75
2021/12/14 01:34:48;;;;;;;4.35;4.05;;;8.40;99.90;;;;;;5001542;28;20042;-75
2021/12/14 01:37:20;;;;;;;10.05;4.95;;;8.40;99.90;;;;;;5001709;28;20042;-75
2021/12/14 01:42:20;;;;;;;9.25;4.72;;;8.40;99.90;;;;;;5004642;28;20061;-75
2021/12/14 01:44:52;;;;;;;5.25;4.40;;;8.40;99.90;;;;;;5005722;28;20046;-75
2021/12/14 01:47:27;;;;;;;4.78;4.32;;;8.30;99.90;;;;;;5005678;28;20552;-75
2021/12/14 01:49:53;;;;;;;5.88;3.83;;;8.30;99.90;;;;;;5004788;28;20053;-75
2021/12/14 01:52:24;;;;;;;5.60;4.43;;;8.30;99.90;;;;;;5005526;28;20067;-75
2021/12/14 01:54:54;;;;;;;3.90;3.35;;;8.40;99.90;;;;;;5005267;28;20073;-75
2021/12/14 01:57:24;;;;;;;4.15;3.45;;;8.40;99.90;;;;;;5003429;28;20049;-75
2021/12/14 01:59:55;;;;;;;4.80;4.43;;;8.40;99.90;;;;;;5005044;28;20073;-75
2021/12/14 02:02:41;;;;;;;6.60;4.35;;;8.30;99.90;;;;;;5005057;28;20547;-75
2021/12/14 02:05:15;;;;;;;8.80;5.47;;;8.30;99.90;;;;;;5016428;28;20052;-74
2021/12/14 02:07:40;;;;;;;7.40;4.65;;;8.30;99.90;;;;;;5024982;28;20144;-75
2021/12/14 02:10:13;;;;;;;5.10;4.47;;;8.30;99.90;;;;;;5029719;22;20185;-74
2021/12/14 02:12:42;;;;;;;6.03;4.88;;;8.30;99.90;;;;;;4967145;28;20046;-74
2021/12/14 02:15:21;;;;;;;5.55;4.47;;;8.30;99.90;;;;;;4984560;28;20535;-75
2021/12/14 02:17:49;;;;;;;5.85;4.47;;;8.30;99.90;;;;;;4986063;28;20498;-75
2021/12/14 02:20:20;;;;;;;4.63;4.32;;;8.30;99.90;;;;;;4967343;28;20100;-75
2021/12/14 02:22:46;;;;;;;5.60;5.20;;;8.30;99.90;;;;;;4985796;28;20053;-75
2021/12/14 02:25:12;;;;;;;6.00;5.45;;;8.30;99.90;;;;;;4967347;28;20038;-75
2021/12/14 02:27:43;;;;;;;6.05;4.78;;;8.30;99.90;;;;;;4984338;28;20046;-75
2021/12/14 02:30:14;;;;;;;4.35;3.92;;;8.30;99.90;;;;;;4983010;28;20073;-75
2021/12/14 02:32:40;;;;;;;7.90;4.07;;;8.30;99.90;;;;;;5005079;28;20046;-74
2021/12/14 02:35:10;;;;;;;7.85;3.85;;;8.30;99.90;;;;;;5004040;28;20128;-75
2021/12/14 02:37:59;;;;;;;5.25;4.80;;;8.30;99.90;;;;;;4986692;28;20085;-75
2021/12/14 02:43:24;;;;;;;4.18;3.58;;;8.30;99.90;;;;;;4986446;28;20108;-75
2021/12/14 02:45:51;;;;;;;5.93;5.30;;;8.30;99.90;;;;;;4987099;28;20602;-75
2021/12/14 02:48:16;;;;;;;3.63;3.33;;;8.30;99.90;;;;;;4987697;28;20046;-75
2021/12/14 02:50:43;;;;;;;6.07;5.55;;;8.30;99.90;;;;;;4986703;28;20481;-75
2021/12/14 02:53:11;;;;;;;7.30;4.07;;;8.30;99.90;;;;;;5002844;28;20065;-75
2021/12/14 02:55:37;;;;;;;6.30;5.80;;;8.30;99.90;;;;;;5003808;28;20041;-75
2021/12/14 02:58:05;;;;;;;6.25;5.70;;;8.30;99.90;;;;;;4985664;28;20065;-75
2021/12/14 03:00:39;;;;;;;10.50;6.75;;;8.30;99.90;;;;;;5004178;28;20054;-74
2021/12/14 03:03:06;;;;;;;6.20;5.47;;;8.30;99.90;;;;;;4986207;28;20073;-75
2021/12/14 03:05:34;;;;;;;9.05;5.70;;;8.30;99.90;;;;;;5004066;28;20500;-75
2021/12/14 03:08:14;;;;;;;4.63;3.28;;;8.30;99.90;;;;;;5003774;28;20411;-75
2021/12/14 03:11:00;;;;;;;8.35;5.03;;;8.30;99.90;;;;;;5003745;28;20084;-75
2021/12/14 03:13:33;;;;;;;5.30;4.90;;;8.30;99.90;;;;;;4985252;28;20544;-75
2021/12/14 03:16:05;;;;;;;5.80;4.57;;;8.30;99.90;;;;;;4986339;28;20815;-75
2021/12/14 03:18:35;;;;;;;4.25;4.03;;;8.30;99.90;;;;;;5004235;28;20041;-75
2021/12/14 03:21:12;;;;;;;4.50;4.10;;;8.30;99.90;;;;;;5003577;28;20415;-75
2021/12/14 03:23:43;;;;;;;5.43;4.90;;;8.30;99.90;;;;;;5002365;28;20049;-75
2021/12/14 03:26:13;;;;;;;5.43;4.93;;;8.30;99.90;;;;;;5002574;28;20041;-75
2021/12/14 03:28:40;;;;;;;4.93;4.53;;;8.30;99.90;;;;;;4998872;28;20049;-75
2021/12/14 03:31:11;;;;;;;11.98;6.57;;;8.30;99.90;;;;;;4983510;28;20069;-75
2021/12/14 03:33:47;;;;;;;8.35;5.40;;;8.30;99.90;;;;;;4982561;28;20047;-74
2021/12/14 03:36:17;;;;;;;6.95;5.97;;;8.30;99.90;;;;;;4983563;28;20045;-74
2021/12/14 03:38:50;;;;;;;7.30;6.53;;;8.30;99.90;;;;;;4983850;28;20046;-74
2021/12/14 03:41:23;;;;;;;9.63;6.18;;;8.30;99.90;;;;;;4966916;28;20042;-75
2021/12/14 03:44:20;;;;;;;6.22;5.05;;;8.30;99.90;;;;;;4983448;28;20050;-75
2021/12/14 03:46:58;;;;;;;7.95;6.50;;;8.30;99.90;;;;;;4971971;28;20058;-75
2021/12/14 03:49:34;;;;;;;4.15;3.80;;;8.30;99.90;;;;;;4965870;28;20469;-75
2021/12/14 03:52:05;;;;;;;9.25;6.18;;;8.30;99.90;;;;;;4965689;28;20042;-75
2021/12/14 03:54:31;;;;;;;6.25;5.75;;;8.30;99.90;;;;;;4983246;28;20508;-74
2021/12/14 03:56:57;;;;;;;6.13;3.88;;;8.30;99.90;;;;;;4982307;28;20042;-74
2021/12/14 03:59:29;;;;;;;6.28;5.40;;;8.30;99.90;;;;;;4983014;28;20045;-75
2021/12/14 04:01:55;;;;;;;6.05;3.63;;;8.30;99.90;;;;;;4982959;28;20556;-75
2021/12/14 04:04:28;;;;;;;5.80;5.10;;;8.30;99.90;;;;;;4983338;28;20044;-75
2021/12/14 04:06:59;;;;;;;7.25;4.38;;;8.30;99.90;;;;;;4983027;28;20057;-75
2021/12/14 04:09:32;;;;;;;6.63;6.05;;;8.30;99.90;;;;;;4965924;28;20706;-75
2021/12/14 04:11:58;;;;;;;5.63;5.10;;;8.30;99.90;;;;;;4981706;28;20067;-75
2021/12/14 04:14:28;;;;;;;3.85;3.35;;;8.30;99.90;;;;;;4965715;28;20779;-75
2021/12/14 04:16:56;;;;;;;7.40;4.88;;;8.30;99.90;;;;;;4965206;28;20368;-75
2021/12/14 04:19:23;;;;;;;5.50;4.18;;;8.30;99.90;;;;;;4983436;28;20073;-74
2021/12/14 04:21:50;;;;;;;4.82;4.43;;;8.30;99.90;;;;;;4983401;28;20046;-75
2021/12/14 04:24:23;;;;;;;6.90;4.13;;;8.30;99.90;;;;;;4966043;28;20046;-74
2021/12/14 04:26:50;;;;;;;5.82;5.28;;;8.30;99.90;;;;;;4982643;28;20046;-75
2021/12/14 04:29:17;;;;;;;6.13;4.18;;;8.30;99.90;;;;;;4991922;28;20049;-74
2021/12/14 04:31:44;;;;;;;5.25;4.75;;;8.30;99.90;;;;;;4984562;28;20491;-75
2021/12/14 04:34:10;;;;;;;8.13;7.15;;;8.20;99.90;;;;;;5002182;28;20052;-75
2021/12/14 04:36:39;;;;;;;7.72;5.50;;;8.30;99.90;;;;;;5002471;28;20057;-75
2021/12/14 04:39:33;;;;;;;5.78;5.15;;;8.30;99.90;;;;;;4984594;28;20073;-74
2021/12/14 04:53:23;;;;;;;8.65;7.57;;;8.20;99.90;;;;;;4984921;28;20076;-74
2021/12/14 04:55:52;;;;;;;9.32;6.38;;;8.20;99.90;;;;;;4984725;28;20054;-75
2021/12/14 04:58:27;;;;;;;10.93;5.95;;;8.30;99.90;;;;;;4983562;28;20048;-74
2021/12/14 05:00:53;;;;;;;9.93;7.30;;;8.30;99.90;;;;;;4984197;28;20038;-75
2021/12/14 05:03:23;;;;;;;6.47;5.82;;;8.20;99.90;;;;;;4984656;28;20046;-75
2021/12/14 05:05:57;;;;;;;9.80;5.00;;;8.20;99.90;;;;;;4984638;28;20069;-75
2021/12/14 05:11:08;;;;;;;4.55;4.15;;;8.20;99.90;;;;;;5002107;28;20068;-75
2021/12/14 05:13:42;;;;;;;7.68;5.53;;;8.30;99.90;;;;;;5000777;28;20100;-74
2021/12/14 05:16:08;;;;;;;7.55;3.65;;;8.30;99.90;;;;;;4987249;28;20464;-75
2021/12/14 05:18:34;;;;;;;9.65;8.77;;;8.20;99.90;;;;;;5005797;28;20381;-75
2021/12/14 05:21:01;;;;;;;7.82;7.15;;;8.20;99.90;;;;;;5005673;28;20034;-74
2021/12/14 05:23:30;;;;;;;7.03;5.85;;;8.30;99.90;;;;;;4988413;28;20049;-74
2021/12/14 05:25:57;;;;;;;15.57;7.30;;;8.20;99.90;;;;;;4988298;28;20088;-75
2021/12/14 05:28:24;;;;;;;7.75;5.80;;;8.30;99.90;;;;;;5003633;28;20046;-75
2021/12/14 05:30:58;;;;;;;6.05;5.00;;;8.20;99.90;;;;;;4986652;28;20088;-75
2021/12/14 05:33:32;;;;;;;7.95;6.50;;;8.20;99.90;;;;;;4968766;28;20090;-75
2021/12/14 05:36:03;;;;;;;5.93;5.43;;;8.30;99.90;;;;;;4985886;28;20077;-75
2021/12/14 05:43:53;;;;;;;6.25;5.70;;;8.20;99.90;;;;;;4968672;28;20473;-75
2021/12/14 05:46:21;;;;;;;6.50;5.95;;;8.20;99.90;;;;;;4968752;28;20077;-75
2021/12/14 05:48:46;;;;;;;7.57;6.38;;;8.20;99.90;;;;;;4968315;28;20112;-75
2021/12/14 05:51:12;;;;;;;5.88;5.22;;;8.20;99.90;;;;;;4985475;28;20779;-75
2021/12/14 05:53:44;;;;;;;4.18;3.78;;;8.20;99.90;;;;;;4985899;28;20046;-75
2021/12/14 05:56:14;;;;;;;5.53;4.70;;;8.20;99.90;;;;;;4985644;28;20093;-75
2021/12/14 05:58:40;;;;;;;6.97;6.15;;;8.20;99.90;;;;;;4985967;28;20064;-75
2021/12/14 06:01:09;;;;;;;8.85;6.38;;;8.20;99.90;;;;;;4985493;28;20121;-75
2021/12/14 06:03:56;;;;;;;7.20;6.43;;;8.20;99.90;;;;;;4985636;28;20056;-75
2021/12/14 06:06:34;;;;;;;6.10;4.47;;;8.20;99.90;;;;;;4968372;28;20496;-75
2021/12/14 06:09:07;;;;;;;12.10;7.60;;;8.20;99.90;;;;;;4985052;28;20445;-75
2021/12/14 06:11:34;;;;;;;5.65;5.18;;;8.20;99.90;;;;;;4984029;28;20058;-75
2021/12/14 06:13:59;;;;;;;5.05;4.65;;;8.20;99.90;;;;;;4966957;28;20054;-75
2021/12/14 06:16:32;;;;;;;5.82;5.28;;;8.20;99.90;;;;;;4985457;28;20043;-75
2021/12/14 06:19:21;;;;;;;7.57;6.95;;;8.20;99.90;;;;;;4960076;28;20063;-75
2021/12/14 06:21:57;;;;;;;6.90;4.70;;;8.20;99.90;;;;;;4975649;28;20046;-77
2021/12/14 06:24:25;;;;;;;7.07;5.18;;;8.20;99.90;;;;;;4981833;28;20042;-77
2021/12/14 06:26:55;;;;;;;8.63;5.97;;;8.20;99.90;;;;;;4962110;28;20547;-77
2021/12/14 06:29:25;;;;;;;8.75;7.93;;;8.20;99.90;;;;;;4982656;28;20050;-77
2021/12/14 06:31:52;;;;;;;6.25;5.75;;;8.20;99.90;;;;;;4962081;28;20081;-77
2021/12/14 06:34:28;;;;;;;7.40;6.80;;;8.20;99.90;;;;;;4974892;28;20128;-77
2021/12/14 06:37:41;;;;;;;5.57;5.05;;;8.20;99.90;;;;;;4955092;28;20064;-77
2021/12/14 06:40:12;;;;;;;7.07;6.22;;;8.20;99.90;;;;;;4971154;28;20134;-77
2021/12/14 06:42:47;;;;;;;9.10;5.60;;;8.20;99.90;;;;;;4966653;28;20230;-77
2021/12/14 06:45:20;;;;;;;9.77;6.30;;;8.20;99.90;;;;;;4967533;28;20050;-77
2021/12/14 06:47:50;;;;;;;7.95;6.72;;;8.20;99.90;;;;;;4966246;28;20049;-77
2021/12/14 06:50:26;;;;;;;7.00;5.88;;;8.20;99.90;;;;;;4980530;28;20677;-76
2021/12/14 06:52:58;;;;;;;9.98;8.35;;;8.20;99.90;;;;;;4967669;28;20042;-77
2021/12/14 06:55:26;;;;;;;7.55;6.85;;;8.20;99.90;;;;;;4967517;28;20046;-77
2021/12/14 06:57:51;;;;;;;6.38;4.57;;;8.20;99.90;;;;;;4984108;28;20043;-77
2021/12/14 07:00:19;;;;;;;9.65;4.93;;;8.20;99.90;;;;;;4967852;28;20057;-76
2021/12/14 07:02:50;;;;;;;7.70;7.00;;;8.30;99.90;;;;;;4979812;28;20039;-81
2021/12/14 07:05:24;;;;;;;7.55;6.90;;;8.20;99.90;;;;;;4972259;28;20122;-76
2021/12/14 07:07:50;;;;;;;10.73;5.93;;;8.20;99.90;;;;;;4970782;28;20117;-76
2021/12/14 07:10:18;;;;;;;6.30;5.80;;;8.20;99.90;;;;;;4979366;28;20120;-75
2021/12/14 07:12:44;;;;;;;5.53;5.00;;;8.30;99.90;;;;;;4947529;28;20379;-76
2021/12/14 07:15:24;;;;;;;10.05;6.10;;;8.20;99.90;;;;;;4964321;28;20779;-76
2021/12/14 07:18:00;;;;;;;7.70;7.03;;;8.20;99.90;;;;;;4975206;28;20049;-75
2021/12/14 07:20:31;;;;;;;8.82;8.05;;;8.20;99.90;;;;;;4966812;28;20042;-76
2021/12/14 07:23:01;;;;;;;9.38;6.97;;;8.20;99.90;;;;;;4983802;28;20051;-76
2021/12/14 07:25:36;;;;;;;6.68;5.78;;;8.30;99.90;;;;;;4983379;28;20503;-77
2021/12/14 07:28:13;;;;;;;8.25;5.88;;;8.30;99.90;;;;;;4983078;28;20054;-77
2021/12/14 07:30:43;;;;;;;12.23;8.68;;;8.20;99.90;;;;;;4964504;28;20042;-76
2021/12/14 07:33:10;;;;;;;7.78;6.80;;;8.30;99.90;;;;;;4964008;28;20070;-75
2021/12/14 07:35:38;;;;;;;5.97;5.45;;;8.20;99.90;;;;;;4964814;28;20039;-76
2021/12/14 07:38:29;;;;;;;7.95;7.20;;;8.30;99.90;;;;;;4963736;28;20047;-76
2021/12/14 07:41:00;;;;;;;7.95;5.85;;;8.20;99.90;;;;;;4963128;28;20556;-76
2021/12/14 07:43:31;;;;;;;6.65;5.68;;;8.30;99.90;;;;;;4964363;28;20046;-76
2021/12/14 07:45:58;;;;;;;8.80;5.40;;;8.30;99.90;;;;;;4964070;28;20559;-76
2021/12/14 07:48:43;;;;;;;4.22;3.85;;;8.20;99.90;;;;;;4964389;28;20047;-76
2021/12/14 07:51:10;;;;;;;7.05;6.28;;;8.20;99.90;;;;;;4964018;28;20094;-76
2021/12/14 07:53:41;;;;;;;7.28;5.38;;;8.20;99.90;;;;;;4971605;28;20057;-75
2021/12/14 07:56:14;;;;;;;7.73;7.13;;;8.30;99.90;;;;;;4979708;28;20057;-75
2021/12/14 07:58:46;;;;;;;6.10;4.97;;;8.30;99.90;;;;;;4983194;28;20041;-75
2021/12/14 08:01:13;;;;;;;8.70;6.33;;;8.30;99.90;;;;;;4982909;28;20052;-75
2021/12/14 08:03:39;;;;;;;12.30;8.25;;;8.30;99.90;;;;;;4965010;28;20141;-75
2021/12/14 08:06:10;;;;;;;6.72;6.15;;;8.30;99.90;;;;;;4964692;28;20121;-75
2021/12/14 08:08:45;;;;;;;7.88;5.82;;;8.30;99.90;;;;;;4983315;28;20057;-75
2021/12/14 08:14:12;;;;;;;7.90;7.25;;;8.30;99.90;;;;;;4982818;28;20076;-76
2021/12/14 08:16:42;;;;;;;7.20;4.95;;;8.30;99.90;;;;;;4983351;28;20046;-75
2021/12/14 08:19:13;;;;;;;11.88;7.72;;;8.30;99.90;;;;;;4982964;28;20042;-74
2021/12/14 08:21:43;;;;;;;8.18;7.45;;;8.30;99.90;;;;;;4982938;28;20512;-74
2021/12/14 08:24:09;;;;;;;13.40;8.13;;;8.30;99.90;;;;;;4982408;28;20054;-74
2021/12/14 08:26:42;;;;;;;6.75;5.10;;;8.30;99.90;;;;;;4964478;28;20400;-74
2021/12/14 08:29:18;;;;;;;8.48;6.50;;;8.30;99.90;;;;;;4964626;28;20742;-74
2021/12/14 08:31:51;;;;;;;8.68;6.28;;;8.40;99.90;;;;;;4982044;28;20271;-75
2021/12/14 08:34:33;;;;;;;12.20;6.05;;;8.30;99.90;;;;;;4981989;28;20047;-75
2021/12/14 08:37:13;;;;;;;5.03;4.53;;;8.30;99.90;;;;;;4964933;28;20134;-75
2021/12/14 08:39:47;;;;;;;7.32;6.82;;;8.30;99.90;;;;;;4982699;28;20050;-75
2021/12/14 08:42:38;;;;;;;5.93;5.32;;;8.40;99.90;;;;;;4981273;28;20049;-75
2021/12/14 08:45:24;;;;;;;7.15;6.45;;;8.40;99.90;;;;;;4962821;28;20057;-76
2021/12/14 08:47:54;;;;;;;11.80;7.78;;;8.40;99.90;;;;;;4963671;28;20176;-74
2021/12/14 08:50:19;;;;;;;8.80;6.28;;;8.40;99.90;;;;;;4945824;28;20051;-75
2021/12/14 08:52:45;;;;;;;6.60;6.10;;;8.40;99.90;;;;;;4963037;28;20046;-74
2021/12/14 08:55:15;;;;;;;6.75;5.60;;;8.40;99.90;;;;;;4962858;28;20134;-74
2021/12/14 08:57:42;;;;;;;5.60;4.97;;;8.40;99.90;;;;;;4945523;28;20406;-74
2021/12/14 09:00:14;;;;;;;10.65;5.32;;;8.40;99.90;;;;;;4945573;28;20046;-74
2021/12/14 09:02:41;;;;;;;5.05;4.60;;;8.40;99.90;;;;;;4965966;28;20132;-74
2021/12/14 09:05:15;;;;;;;7.90;6.70;;;8.50;99.90;;;;;;4982129;28;20053;-75
2021/12/14 09:07:42;;;;;;;8.10;6.53;;;8.40;99.90;;;;;;4982561;28;20374;-76
2021/12/14 09:10:13;;;;;;;5.20;4.70;;;8.40;99.90;;;;;;4981766;28;20100;-75
2021/12/14 09:12:42;;;;;;;8.65;7.38;;;8.40;99.90;;;;;;4981386;28;20452;-75
2021/12/14 09:15:13;;;;;;;5.80;5.28;;;8.50;99.90;;;;;;4980069;28;20050;-75
2021/12/14 09:17:39;;;;;;;6.83;5.43;;;8.50;99.90;;;;;;4980630;28;20053;-75
2021/12/14 09:20:11;;;;;;;8.10;7.43;;;8.40;99.90;;;;;;4978717;28;20046;-75
2021/12/14 09:22:43;;;;;;;5.82;5.03;;;8.40;99.90;;;;;;4961572;28;20051;-75
2021/12/14 09:25:13;;;;;;;6.82;4.05;;;8.50;99.90;;;;;;4963893;28;20065;-75
2021/12/14 09:27:39;;;;;;;6.35;5.60;;;8.40;99.90;;;;;;4980363;28;20077;-75
2021/12/14 09:30:08;;;;;;;8.43;6.38;;;8.40;99.90;;;;;;4981671;28;20069;-75
2021/12/14 09:32:36;;;;;;;12.25;3.72;;;8.50;99.90;;;;;;4964492;28;20069;-76
2021/12/14 09:35:04;;;;;;;9.07;6.68;;;8.40;99.90;;;;;;4964134;28;20110;-76
2021/12/14 09:37:31;;;;;;;8.38;5.90;;;8.50;99.90;;;;;;4981570;28;20054;-76
2021/12/14 09:40:03;;;;;;;8.43;7.55;;;8.50;99.90;;;;;;4981403;28;20054;-76
2021/12/14 09:42:32;;;;;;;4.55;4.25;;;8.50;99.90;;;;;;4981308;28;20078;-76
2021/12/14 09:45:04;;;;;;;6.63;5.93;;;8.50;99.90;;;;;;4980259;28;20058;-76
2021/12/14 09:47:31;;;;;;;5.28;4.72;;;8.50;99.90;;;;;;4981379;28;20042;-76
2021/12/14 09:50:01;;;;;;;9.07;7.03;;;8.50;99.90;;;;;;4980999;28;20049;-76
2021/12/14 09:52:31;;;;;;;8.65;5.00;;;8.50;99.90;;;;;;4964584;28;20050;-76
2021/12/14 09:54:58;;;;;;;8.27;6.78;;;8.50;99.90;;;;;;4979860;28;20620;-77
2021/12/14 09:57:34;;;;;;;9.50;6.43;;;8.50;99.90;;;;;;4975395;28;20797;-76
2021/12/14 10:00:05;;;;;;;5.47;4.22;;;8.50;99.90;;;;;;4984569;28;20076;-77
2021/12/14 10:02:38;;;;;;;5.15;4.65;;;8.50;99.90;;;;;;4972214;28;20039;-77
2021/12/14 10:05:18;;;;;;;5.60;5.25;;;8.50;99.90;;;;;;4949088;28;20051;-77
2021/12/14 10:07:44;;;;;;;5.43;4.93;;;8.50;99.90;;;;;;4965842;28;20098;-80
2021/12/14 10:10:14;;;;;;;7.40;5.20;;;8.50;99.90;;;;;;4961788;28;20547;-82
2021/12/14 10:12:49;;;;;;;5.50;4.85;;;8.50;99.90;;;;;;4974812;28;20839;-81
2021/12/14 10:15:21;;;;;;;7.28;5.65;;;8.50;99.90;;;;;;4984507;28;20112;-80
2021/12/14 10:17:48;;;;;;;10.65;5.80;;;8.50;99.90;;;;;;4985259;28;20488;-80
2021/12/14 10:20:22;;;;;;;9.63;6.25;;;8.50;99.90;;;;;;4985219;28;20042;-81
2021/12/14 10:22:51;;;;;;;4.70;4.22;;;8.50;99.90;;;;;;4968081;28;20499;-79
2021/12/14 10:25:20;;;;;;;5.57;5.18;;;8.50;99.90;;;;;;4967331;28;20053;-79
2021/12/14 10:27:47;;;;;;;5.03;4.18;;;8.50;99.90;;;;;;4985418;28;20041;-85
2021/12/14 10:30:30;;;;;;;8.98;6.05;;;8.50;99.90;;;;;;4975575;28;20116;-82
2021/12/14 10:32:57;;;;;;;11.02;5.15;;;8.50;99.90;;;;;;4985180;28;20134;-79
2021/12/14 10:35:29;;;;;;;4.90;3.95;;;8.50;99.90;;;;;;4984618;28;20602;-78
2021/12/14 10:38:00;;;;;;;7.05;5.40;;;8.50;99.90;;;;;;4967257;28;20068;-80
2021/12/14 10:43:19;;;;;;;13.57;7.38;;;8.50;99.90;;;;;;4967217;28;20145;-80
2021/12/14 10:45:53;;;;;;;8.63;4.40;;;8.50;99.90;;;;;;4984532;28;20046;-80
2021/12/14 10:48:21;;;;;;;7.00;4.22;;;8.60;99.90;;;;;;4956242;28;20558;-78
2021/12/14 10:50:50;;;;;;;4.38;3.95;;;8.60;99.90;;;;;;4976530;28;20085;-78
2021/12/14 10:53:19;;;;;;;4.57;3.50;;;8.60;99.90;;;;;;4984613;28;20046;-78
2021/12/14 10:55:59;;;;;;;4.47;3.55;;;8.60;99.90;;;;;;4966672;28;20061;-78
2021/12/14 10:58:27;;;;;;;7.03;5.00;;;8.60;99.90;;;;;;4961421;28;20052;-78
2021/12/14 11:01:01;;;;;;;3.90;3.50;;;8.60;99.90;;;;;;4966512;28;20065;-78
2021/12/14 11:03:30;;;;;;;4.05;3.72;;;8.70;99.90;;;;;;4967674;28;20061;-78
2021/12/14 11:06:00;;;;;;;5.30;4.25;;;8.60;99.90;;;;;;4971520;28;20061;-78
2021/12/14 11:08:43;;;;;;;4.07;3.60;;;8.60;99.90;;;;;;4965369;28;20126;-78
2021/12/14 11:11:18;;;;;;;5.97;2.85;;;8.70;99.90;;;;;;4964276;28;20809;-78
2021/12/14 11:13:48;;;;;;;4.05;3.70;;;8.70;99.90;;;;;;4962981;28;20050;-78
2021/12/14 11:16:31;;;;;;;4.45;4.03;;;8.70;99.90;;;;;;4970160;28;20046;-78
2021/12/14 11:19:02;;;;;;;2.00;1.88;;;8.70;99.90;;;;;;4984199;28;20121;-78
2021/12/14 11:21:28;;;;;;;2.90;2.58;;;8.70;99.90;;;;;;4965911;28;20062;-78
2021/12/14 11:23:54;;;;;;;3.92;3.55;;;8.70;99.90;;;;;;4969653;28;20408;-85
2021/12/14 11:26:29;;;;;;;5.68;3.50;;;8.80;99.90;;;;;;4963300;28;20070;-82
2021/12/14 11:29:03;;;;;;;3.03;2.13;;;8.80;99.90;;;;;;4980102;28;20074;-81
2021/12/14 11:31:51;;;;;;;4.55;4.15;;;8.70;99.90;;;;;;4982761;28;20042;-85
2021/12/14 11:34:35;;;;;;;4.25;3.97;;;8.70;99.90;;;;;;4983198;28;20038;-83
2021/12/14 11:37:07;;;;;;;2.88;2.67;;;8.80;99.90;;;;;;4983185;28;20125;-82
2021/12/14 11:39:38;;;;;;;;;;;8.80;99.90;;;;;;4983982;28;20038;-85
2021/12/14 11:42:10;;;;;;;2.95;2.40;;;8.80;99.90;;;;;;4967722;28;19922;-85
2021/12/14 11:44:44;;;;;;;3.63;2.65;;;8.80;99.90;;;;;;4983927;28;20129;-86
2021/12/14 11:49:57;;;;;;;2.40;2.17;;;8.80;99.90;;;;;;4965740;28;20050;-82
2021/12/14 11:52:38;;;;;;;2.10;1.98;;;8.80;99.90;;;;;;4983283;28;20129;-82
2021/12/14 11:55:21;;;;;;;2.45;2.35;;;8.80;99.90;;;;;;4962934;28;21093;-83
2021/12/14 11:57:48;;;;;;;5.25;4.13;;;8.80;99.90;;;;;;4965655;28;20053;-82
2021/12/14 12:00:19;;;;;;;5.25;2.90;;;8.80;99.90;;;;;;4965398;28;20050;-80
2021/12/14 12:02:45;;;;;;;1.77;1.67;;;8.80;99.90;;;;;;4983483;28;20100;-80
2021/12/14 12:05:20;;;;;;;1.85;1.75;;;8.80;99.90;;;;;;4983097;28;20046;-79
2021/12/14 12:10:46;;;;;;;2.83;2.65;;;8.90;99.90;;;;;;4961540;28;20112;-79
2021/12/14 12:13:12;;;;;;;1.00;1.00;;;8.90;99.90;;;;;;4961835;28;20420;-79
2021/12/14 12:15:46;;;;;;;3.70;2.42;;;8.90;99.90;;;;;;4962974;28;20046;-80
2021/12/14 12:18:11;;;;;;;2.60;1.73;;;8.90;99.90;;;;;;4962504;28;20539;-80
2021/12/14 12:20:46;;;;;;;1.75;1.65;;;8.90;99.90;;;;;;4963984;28;20090;-79
2021/12/14 12:23:15;;;;;;;1.48;1.38;;;8.90;99.90;;;;;;4962478;28;20083;-79
2021/12/14 12:25:58;;;;;;;3.08;2.17;;;9.00;99.90;;;;;;4960842;28;20925;-79
2021/12/14 12:28:26;;;;;;;1.63;1.52;;;9.00;99.90;;;;;;4963828;28;20097;-80
2021/12/14 12:31:04;;;;;;;2.50;1.73;;;9.00;99.90;;;;;;4961992;28;20051;-80
2021/12/14 12:33:54;;;;;;;1.23;1.13;;;9.00;99.90;;;;;;4963502;28;20043;-80
2021/12/14 12:36:28;;;;;;;4.25;1.67;;;9.00;99.90;;;;;;4953253;28;20204;-79
2021/12/14 12:39:00;;;;;;;3.38;2.17;;;9.00;99.90;;;;;;4963277;28;20035;-80
2021/12/14 12:41:44;;;;;;;1.95;1.85;;;9.00;99.90;;;;;;4961545;28;20101;-79
2021/12/14 12:44:20;;;;;;;1.13;1.13;;;9.00;99.90;;;;;;4963274;28;20057;-79
2021/12/14 12:46:52;;;;;;;1.17;1.13;;;9.10;99.90;;;;;;4964121;28;20189;-79
2021/12/14 12:49:28;;;;;;;2.75;1.65;;;9.10;99.90;;;;;;4962870;28;20101;-80
2021/12/14 12:52:14;;;;;;;2.60;2.47;;;9.10;99.90;;;;;;4961603;28;20039;-79
2021/12/14 12:54:57;;;;;;;2.40;1.38;;;9.10;99.90;;;;;;4956691;28;20071;-80
2021/12/14 12:57:45;;;;;;;2.35;1.88;;;9.10;99.90;;;;;;4959965;28;20054;-80
2021/12/14 13:00:30;;;;;;;1.40;1.35;;;9.10;99.90;;;;;;4957552;28;20101;-79
2021/12/14 13:03:13;;;;;;;2.05;1.38;;;9.10;99.90;;;;;;4940919;29;20043;-79
2021/12/14 13:05:50;;;;;;;2.13;1.95;;;9.20;99.90;;;;;;4956669;28;20520;-77
2021/12/14 13:08:24;;;;;;;1.27;1.10;;;9.20;99.90;;;;;;4961625;28;20042;-78
2021/12/14 13:10:59;;;;;;;1.40;1.23;;;9.10;99.90;;;;;;4973518;28;20046;-78
2021/12/14 13:13:29;;;;;;;1.35;1.20;;;9.20;99.90;;;;;;4965852;28;20050;-79
2021/12/14 13:16:10;;;;;;;2.47;2.30;;;9.20;99.90;;;;;;4952345;28;20043;-78
2021/12/14 13:18:46;;;;;;;1.10;1.10;;;9.20;99.90;;;;;;4971123;28;20035;-78
2021/12/14 13:21:24;;;;;;;2.70;2.45;;;9.20;99.90;;;;;;4963593;28;20057;-79
2021/12/14 13:24:17;;;;;;;4.75;1.80;;;9.20;99.90;;;;;;4980909;28;20085;-78
2021/12/14 13:26:48;;;;;;;3.15;2.67;;;9.20;99.90;;;;;;4972029;28;20369;-78
2021/12/14 13:29:14;;;;;;;2.38;2.17;;;9.20;99.90;;;;;;4963553;28;20074;-78
2021/12/14 13:31:44;;;;;;;1.33;0.90;;;9.20;99.90;;;;;;4974652;28;20468;-79
2021/12/14 13:34:32;;;;;;;1.90;1.38;;;9.20;99.90;;;;;;4978286;28;20404;-79
2021/12/14 13:36:59;;;;;;;4.07;1.95;;;9.20;99.90;;;;;;4970856;28;20084;-79
2021/12/14 13:39:27;;;;;;;2.17;1.13;;;9.20;99.90;;;;;;4985980;28;20579;-80
2021/12/14 13:41:56;;;;;;;1.45;1.35;;;9.20;99.90;;;;;;4983963;28;20046;-78
2021/12/14 13:44:22;;;;;;;1.40;1.40;;;9.20;99.90;;;;;;4968622;28;20105;-79
2021/12/14 13:46:48;;;;;;;1.20;1.15;;;9.20;99.90;;;;;;4979145;28;20122;-78
2021/12/14 13:49:14;;;;;;;1.60;0.65;;;9.20;99.90;;;;;;4950487;28;20137;-78
2021/12/14 13:51:39;;;;;;;1.25;1.23;;;9.20;99.90;;;;;;4964088;28;20035;-78
2021/12/14 13:54:05;;;;;;;1.40;1.33;;;9.20;99.90;;;;;;4947551;28;20129;-80
2021/12/14 13:56:34;;;;;;;0.85;0.85;;;9.30;99.90;;;;;;4979541;28;20847;-79
2021/12/14 13:59:00;;;;;;;1.23;1.15;;;9.20;99.90;;;;;;4980287;28;20527;-80
2021/12/14 14:01:54;;;;;;;2.35;1.80;;;9.30;99.90;;;;;;4973574;28;20047;-81
2021/12/14 14:04:24;;;;;;;1.65;1.55;;;9.20;99.90;;;;;;4953237;28;20061;-79
2021/12/14 14:06:50;;;;;;;0.98;0.50;;;9.20;99.90;;;;;;4976085;28;20045;-80
2021/12/14 14:09:25;;;;;;;1.60;1.50;;;9.30;99.90;;;;;;4983673;28;20047;-77